createdAt,value
2023-08-03T18:59:07.875Z,99815.28
2023-08-03T19:01:34.866Z,99813.22
2023-08-03T19:04:01.841Z,99812.00
2023-08-03T19:06:29.216Z,99810.72
2023-08-03T19:08:56.253Z,99814.78
2023-08-03T19:11:23.200Z,99822.13
2023-08-03T19:13:50.110Z,99820.88
2023-08-03T19:16:17.152Z,99818.44
2023-08-03T19:18:44.514Z,99819.66
2023-08-03T19:21:13.098Z,99817.63
2023-08-03T19:23:40.133Z,99823.34
2023-08-03T19:26:08.820Z,99828.19
2023-08-03T19:28:35.745Z,99822.47
2023-08-03T19:31:03.226Z,99820.78
2023-08-03T19:33:30.708Z,99826.31
2023-08-03T19:35:57.627Z,99817.72
2023-08-03T19:38:24.545Z,99816.91
2023-08-03T19:40:54.504Z,99823.63
2023-08-03T19:43:23.413Z,99821.56
2023-08-03T19:45:50.586Z,99828.47
2023-08-03T19:48:17.514Z,99826.16
2023-08-03T19:56:35.950Z,99830.47
2023-08-03T20:06:14.491Z,99836.53
2023-08-03T20:11:11.837Z,99835.91
2023-08-03T20:16:08.717Z,99840.97
2023-08-03T20:18:35.618Z,99848.28
2023-08-03T20:21:03.832Z,99845.63
2023-08-03T20:23:31.123Z,99837.06
2023-08-03T20:26:01.573Z,99841.53
2023-08-03T20:28:28.748Z,99841.09
2023-08-03T20:30:55.647Z,99837.00
2023-08-03T20:33:24.528Z,99833.75
2023-08-03T20:36:02.456Z,99842.00
2023-08-03T20:43:31.062Z,99863.34
2023-08-03T20:45:58.862Z,99867.38
2023-08-03T20:50:58.579Z,99886.47
2023-08-03T20:53:25.710Z,99877.91
2023-08-03T20:55:52.892Z,99890.16
2023-08-03T20:58:25.884Z,99899.72
2023-08-03T21:00:54.318Z,99895.44
2023-08-03T21:03:21.568Z,99894.19
2023-08-03T21:05:50.852Z,99898.03
2023-08-03T21:08:18.463Z,99902.69
2023-08-03T21:13:17.662Z,99907.28
2023-08-03T21:15:44.667Z,99908.00
2023-08-03T21:20:41.364Z,99917.09
2023-08-03T21:23:08.281Z,99911.72
2023-08-03T21:25:35.165Z,99922.84
2023-08-03T21:28:02.148Z,99926.25
2023-08-03T21:30:29.155Z,99925.22
2023-08-03T21:32:56.280Z,99926.25
2023-08-03T21:35:23.234Z,99929.88
2023-08-03T21:37:50.084Z,99931.25
2023-08-03T21:40:17.020Z,99930.16
2023-08-03T21:42:43.972Z,99926.41
2023-08-03T21:45:11.348Z,99932.53
2023-08-03T21:47:38.914Z,99927.44
2023-08-03T21:50:06.581Z,99925.50
2023-08-03T21:52:33.507Z,99928.78
2023-08-03T21:55:00.424Z,99928.31
2023-08-03T21:57:27.288Z,99929.50
2023-08-03T21:59:54.220Z,99930.69
2023-08-03T22:02:21.140Z,99927.56
2023-08-03T22:04:48.140Z,99928.16
2023-08-03T22:07:15.085Z,99928.22
2023-08-03T22:09:41.991Z,99926.09
2023-08-03T22:12:09.312Z,99939.31
2023-08-03T22:14:36.283Z,99931.78
2023-08-03T22:17:04.599Z,99934.75
2023-08-03T22:19:31.531Z,99928.84
2023-08-03T22:21:58.483Z,99933.69
2023-08-03T22:24:25.353Z,99937.69
2023-08-03T22:26:52.253Z,99939.50
2023-08-03T22:29:19.132Z,99935.88
2023-08-03T22:31:46.299Z,99942.78
2023-08-03T22:34:13.362Z,99948.72
2023-08-03T22:36:40.357Z,99954.38
2023-08-03T22:39:07.283Z,99957.00
2023-08-03T22:41:34.365Z,99959.91
2023-08-03T22:44:01.428Z,99972.00
2023-08-03T22:46:28.517Z,99974.53
2023-08-03T22:48:55.696Z,99976.88
2023-08-03T22:51:22.766Z,99977.06
2023-08-03T22:53:49.827Z,99979.34
2023-08-03T22:56:17.476Z,99973.72
2023-08-03T22:58:44.792Z,99979.97
2023-08-03T23:01:20.737Z,99982.16
2023-08-03T23:03:49.770Z,99972.44
2023-08-03T23:06:23.548Z,99985.81
2023-08-03T23:08:51.461Z,99983.00
2023-08-03T23:11:18.674Z,99987.44
2023-08-03T23:13:45.617Z,99979.53
2023-08-03T23:16:20.445Z,99985.97
2023-08-03T23:18:47.653Z,99990.63
2023-08-03T23:21:14.547Z,99989.34
2023-08-03T23:23:41.477Z,99989.66
2023-08-03T23:26:12.477Z,99991.50
2023-08-03T23:28:39.890Z,99997.78
2023-08-03T23:31:07.405Z,100002.06
2023-08-03T23:33:34.697Z,99998.34
2023-08-03T23:36:01.861Z,99991.13
2023-08-03T23:38:29.703Z,99990.81
2023-08-03T23:40:56.662Z,100003.34
2023-08-03T23:43:23.560Z,99996.59
2023-08-03T23:45:50.439Z,100006.53
2023-08-03T23:48:17.410Z,100007.34
2023-08-03T23:50:44.325Z,100007.72
2023-08-03T23:53:11.211Z,100005.06
2023-08-03T23:55:38.066Z,100015.78
2023-08-03T23:58:04.948Z,100011.03
